DEKAY EDLW-ZZZZ

Flight info

Callsign DEKAY
Flight time N/A
Altitude
Route VFR
Aircraft TBM9

Departure

Time 2026-05-04 14:50
Airport Dortmund Airport (EDLW)

Arrival

Time N/A
Airport ZZZZ
Time Latitude Longitude Altitude Speed Heading
2026-05-04 14:43 51.51236 7.60522 444 ft 0 kts 104°
2026-05-04 14:43 51.51222 7.60490 439 ft 14 kts 249°
2026-05-04 14:43 51.51192 7.60285 436 ft 21 kts 231°
2026-05-04 14:44 51.51169 7.60167 435 ft 13 kts 336°
2026-05-04 14:44 51.51251 7.60299 441 ft 21 kts 57°
2026-05-04 14:44 51.51331 7.60529 441 ft 26 kts 59°
2026-05-04 14:44 51.51462 7.60905 429 ft 46 kts 60°
2026-05-04 14:45 51.51593 7.61108 425 ft 17 kts 40°
2026-05-04 14:45 51.51671 7.61307 427 ft 25 kts 63°
2026-05-04 14:45 51.51765 7.61565 416 ft 28 kts 61°
2026-05-04 14:45 51.51890 7.61914 413 ft 50 kts 58°
2026-05-04 14:46 51.52052 7.62383 410 ft 22 kts 51°
2026-05-04 14:46 51.52138 7.62355 413 ft 0 kts 331°
2026-05-04 14:48 51.52140 7.62354 413 ft 4 kts 330°
2026-05-04 14:48 51.52190 7.62240 414 ft 0 kts 241°
2026-05-04 14:49 51.52175 7.62192 412 ft 26 kts 239°
2026-05-04 14:49 51.51836 7.61260 416 ft 114 kts 239°
2026-05-04 14:50 51.51522 7.60497 623 ft 131 kts 240°
2026-05-04 14:50 51.50839 7.59406 1103 ft 147 kts 202°
2026-05-04 14:50 51.49867 7.59833 1724 ft 160 kts 149°
2026-05-04 14:50 51.48873 7.60896 1916 ft 190 kts 153°
2026-05-04 14:51 51.47608 7.61817 2101 ft 207 kts 164°
2026-05-04 14:51 51.46187 7.62392 2395 ft 212 kts 171°
2026-05-04 14:51 51.44701 7.62816 2533 ft 222 kts 175°
2026-05-04 14:51 51.43151 7.63056 2775 ft 219 kts 179°
2026-05-04 14:52 51.41815 7.63287 4056 ft 170 kts 178°
2026-05-04 14:52 51.40553 7.63372 4187 ft 200 kts 181°
2026-05-04 14:52 51.39190 7.63101 4790 ft 189 kts 200°